Tenkaku — JM6537 — position and weather

sailwx.info

Track history (hours):
 
Tides and Currents Weather Stations Pressure Air Temp Water Temp Dewpoint Dewpoint Depression Visibility Wind Speed Wind Dir Waves Ship Positions

Tenkaku

Last reported at 2018-Jun-08 12:49 UTC. Time now 2018-Jun-20 05:32 UTC.
Position N 35°13' E 139°47'.
Warning: this ship's position is 11 days out of date.

Length 80 m; draft 5 m.

Type: Cargo ship. MMSI: 431600647.

Date/timePositionNaut miles runAvg speedWind from/ knotsBaromVisibWave heightAir tempDewpointWater temp
2018-Jun-08 12:49N 35°13' E 139°47'3 9.9
2018-Jun-08 12:30N 35°16' E 139°46'510.1
2018-Jun-08 12:00N 35°20' E 139°43'510.5
2018-Jun-08 11:30N 35°25' E 139°43'4 8.5
2018-Jun-08 11:00N 35°30' E 139°44'1 2.1
2018-Jun-08 10:30N 35°31' E 139°44'0 0.0
2018-Jun-08 10:00N 35°31' E 139°44'0 0.0
2018-Jun-08 09:29N 35°31' E 139°44'0 0.0
2018-Jun-08 09:00N 35°31' E 139°44'0 0.0
2018-Jun-08 08:31N 35°31' E 139°44'0 0.0
2018-Jun-08 08:00N 35°31' E 139°44'0 0.0
2018-Jun-08 07:30N 35°31' E 139°44'0 0.0
2018-Jun-08 07:00N 35°31' E 139°44'0 0.0
2018-Jun-08 06:30N 35°31' E 139°44'0 0.1
2018-Jun-08 06:00N 35°31' E 139°44'3 5.5
2018-Jun-08 05:30N 35°30' E 139°47'3 5.0
2018-Jun-08 05:00N 35°32' E 139°50'4 0.6
2018-Jun-07 21:45N 35°35' E 139°46'1 5.4
2018-Jun-07 21:30N 35°34' E 139°48'3 5.8
2018-Jun-07 20:58N 35°34' E 139°51'0 0.0
2018-Jun-07 20:28N 35°34' E 139°51'0 0.0
2018-Jun-07 19:58N 35°34' E 139°51'0 0.0
2018-Jun-07 19:28N 35°34' E 139°51'0 0.0
2018-Jun-07 18:58N 35°34' E 139°51'0 0.0
2018-Jun-07 18:28N 35°34' E 139°51'0 0.0
2018-Jun-07 17:58N 35°34' E 139°51'0 0.0
2018-Jun-07 17:28N 35°34' E 139°51'0 0.0
2018-Jun-07 16:58N 35°34' E 139°51'0 0.0
2018-Jun-07 16:28N 35°34' E 139°51'0 0.0
2018-Jun-07 15:55N 35°34' E 139°51'0 0.0
2018-Jun-07 15:28N 35°34' E 139°51'0 0.0
2018-Jun-07 14:58N 35°34' E 139°51'0 0.0
2018-Jun-07 14:28N 35°34' E 139°51'0 0.0
2018-Jun-07 13:58N 35°34' E 139°51'0 0.0
2018-Jun-07 13:28N 35°34' E 139°51'0 0.0
2018-Jun-07 12:58N 35°34' E 139°51'0 0.0
2018-Jun-07 12:28N 35°34' E 139°51'0 0.0
2018-Jun-07 11:58N 35°34' E 139°51'0 0.0
2018-Jun-07 11:28N 35°34' E 139°51'0 0.0
2018-Jun-07 10:58N 35°34' E 139°51'0 0.0
2018-Jun-07 10:25N 35°34' E 139°51'0 0.0
2018-Jun-07 09:58N 35°34' E 139°51'0 0.0
2018-Jun-07 09:28N 35°34' E 139°51'0 0.0
2018-Jun-07 08:58N 35°34' E 139°51'0 0.5
2018-Jun-07 08:30N 35°34' E 139°51'510.0
2018-Jun-07 08:00N 35°29' E 139°51'611.1
2018-Jun-07 07:30N 35°25' E 139°47'611.1
2018-Jun-07 07:00N 35°19' E 139°44'510.0
2018-Jun-07 06:30N 35°15' E 139°47'510.6
2018-Jun-07 06:00N 35°10' E 139°47'  
2018-Jun-01 07:10N 34°55' E 139°45'210.1
2018-Jun-01 07:00N 34°56' E 139°44'510.2
2018-Jun-01 06:30N 35°01' E 139°44'611.0
2018-Jun-01 06:00N 35°07' E 139°45'611.3
2018-Jun-01 05:30N 35°12' E 139°46'510.5
2018-Jun-01 05:00N 35°18' E 139°45'510.4
2018-Jun-01 04:30N 35°22' E 139°42'5 9.3
2018-Jun-01 04:00N 35°25' E 139°47'5 9.1
2018-Jun-01 03:30N 35°22' E 139°51'0 0.0
2018-Jun-01 02:53N 35°22' E 139°51'0 0.0
2018-Jun-01 02:23N 35°22' E 139°51'0 0.0
2018-Jun-01 01:48N 35°22' E 139°51'0 0.0
2018-Jun-01 01:22N 35°22' E 139°51'0 0.0
2018-Jun-01 01:00N 35°22' E 139°51'0 0.0
2018-Jun-01 00:28N 35°22' E 139°51'0 0.0
2018-May-31 23:46N 35°22' E 139°51'0 0.0
2018-May-31 23:21N 35°22' E 139°51'0 0.0
2018-May-31 22:55N 35°22' E 139°51'0 0.0
2018-May-31 22:28N 35°22' E 139°51'1 1.8
2018-May-31 22:00N 35°22' E 139°50'3 0.1
2018-May-30 21:29N 35°22' E 139°53'3 1.2
2018-May-30 18:43N 35°23' E 139°49'310.7
2018-May-30 18:29N 35°23' E 139°46'5 9.8
2018-May-30 18:00N 35°18' E 139°45'510.4
2018-May-30 17:30N 35°13' E 139°47'510.5
2018-May-30 17:00N 35°08' E 139°46'510.0
2018-May-30 16:30N 35°03' E 139°45'5 9.8
2018-May-30 16:00N 34°58' E 139°43'  
Track history (hours):
 
Tides and Currents Weather Stations Pressure Air Temp Water Temp Dewpoint Dewpoint Depression Visibility Wind Speed Wind Dir Waves Ship Positions

Tenkaku

Last reported at 2018-Jun-08 12:49 UTC. Time now 2018-Jun-20 05:32 UTC.
Position N 35°13' E 139°47'.
Warning: this ship's position is 11 days out of date.

Length 80 m; draft 5 m.

Type: Cargo ship. MMSI: 431600647.

Date/timePositionNaut miles runAvg speedWind from/ knotsBaromVisibWave heightAir tempDewpointWater temp
2018-Jun-08 12:49N 35°13' E 139°47'3 9.9
2018-Jun-08 12:30N 35°16' E 139°46'510.1
2018-Jun-08 12:00N 35°20' E 139°43'510.5
2018-Jun-08 11:30N 35°25' E 139°43'4 8.5
2018-Jun-08 11:00N 35°30' E 139°44'1 2.1
2018-Jun-08 10:30N 35°31' E 139°44'0 0.0
2018-Jun-08 10:00N 35°31' E 139°44'0 0.0
2018-Jun-08 09:29N 35°31' E 139°44'0 0.0
2018-Jun-08 09:00N 35°31' E 139°44'0 0.0
2018-Jun-08 08:31N 35°31' E 139°44'0 0.0
2018-Jun-08 08:00N 35°31' E 139°44'0 0.0
2018-Jun-08 07:30N 35°31' E 139°44'0 0.0
2018-Jun-08 07:00N 35°31' E 139°44'0 0.0
2018-Jun-08 06:30N 35°31' E 139°44'0 0.1
2018-Jun-08 06:00N 35°31' E 139°44'3 5.5
2018-Jun-08 05:30N 35°30' E 139°47'3 5.0
2018-Jun-08 05:00N 35°32' E 139°50'4 0.6
2018-Jun-07 21:45N 35°35' E 139°46'1 5.4
2018-Jun-07 21:30N 35°34' E 139°48'3 5.8
2018-Jun-07 20:58N 35°34' E 139°51'0 0.0
2018-Jun-07 20:28N 35°34' E 139°51'0 0.0
2018-Jun-07 19:58N 35°34' E 139°51'0 0.0
2018-Jun-07 19:28N 35°34' E 139°51'0 0.0
2018-Jun-07 18:58N 35°34' E 139°51'0 0.0
2018-Jun-07 18:28N 35°34' E 139°51'0 0.0
2018-Jun-07 17:58N 35°34' E 139°51'0 0.0
2018-Jun-07 17:28N 35°34' E 139°51'0 0.0
2018-Jun-07 16:58N 35°34' E 139°51'0 0.0
2018-Jun-07 16:28N 35°34' E 139°51'0 0.0
2018-Jun-07 15:55N 35°34' E 139°51'0 0.0
2018-Jun-07 15:28N 35°34' E 139°51'0 0.0
2018-Jun-07 14:58N 35°34' E 139°51'0 0.0
2018-Jun-07 14:28N 35°34' E 139°51'0 0.0
2018-Jun-07 13:58N 35°34' E 139°51'0 0.0
2018-Jun-07 13:28N 35°34' E 139°51'0 0.0
2018-Jun-07 12:58N 35°34' E 139°51'0 0.0
2018-Jun-07 12:28N 35°34' E 139°51'0 0.0
2018-Jun-07 11:58N 35°34' E 139°51'0 0.0
2018-Jun-07 11:28N 35°34' E 139°51'0 0.0
2018-Jun-07 10:58N 35°34' E 139°51'0 0.0
2018-Jun-07 10:25N 35°34' E 139°51'0 0.0
2018-Jun-07 09:58N 35°34' E 139°51'0 0.0
2018-Jun-07 09:28N 35°34' E 139°51'0 0.0
2018-Jun-07 08:58N 35°34' E 139°51'0 0.5
2018-Jun-07 08:30N 35°34' E 139°51'510.0
2018-Jun-07 08:00N 35°29' E 139°51'611.1
2018-Jun-07 07:30N 35°25' E 139°47'611.1
2018-Jun-07 07:00N 35°19' E 139°44'510.0
2018-Jun-07 06:30N 35°15' E 139°47'510.6
2018-Jun-07 06:00N 35°10' E 139°47'  
2018-Jun-01 07:10N 34°55' E 139°45'210.1
2018-Jun-01 07:00N 34°56' E 139°44'510.2
2018-Jun-01 06:30N 35°01' E 139°44'611.0
2018-Jun-01 06:00N 35°07' E 139°45'611.3
2018-Jun-01 05:30N 35°12' E 139°46'510.5
2018-Jun-01 05:00N 35°18' E 139°45'510.4
2018-Jun-01 04:30N 35°22' E 139°42'5 9.3
2018-Jun-01 04:00N 35°25' E 139°47'5 9.1
2018-Jun-01 03:30N 35°22' E 139°51'0 0.0
2018-Jun-01 02:53N 35°22' E 139°51'0 0.0
2018-Jun-01 02:23N 35°22' E 139°51'0 0.0
2018-Jun-01 01:48N 35°22' E 139°51'0 0.0
2018-Jun-01 01:22N 35°22' E 139°51'0 0.0
2018-Jun-01 01:00N 35°22' E 139°51'0 0.0
2018-Jun-01 00:28N 35°22' E 139°51'0 0.0
2018-May-31 23:46N 35°22' E 139°51'0 0.0
2018-May-31 23:21N 35°22' E 139°51'0 0.0
2018-May-31 22:55N 35°22' E 139°51'0 0.0
2018-May-31 22:28N 35°22' E 139°51'1 1.8
2018-May-31 22:00N 35°22' E 139°50'3 0.1
2018-May-30 21:29N 35°22' E 139°53'3 1.2
2018-May-30 18:43N 35°23' E 139°49'310.7
2018-May-30 18:29N 35°23' E 139°46'5 9.8
2018-May-30 18:00N 35°18' E 139°45'510.4
2018-May-30 17:30N 35°13' E 139°47'510.5
2018-May-30 17:00N 35°08' E 139°46'510.0
2018-May-30 16:30N 35°03' E 139°45'5 9.8
2018-May-30 16:00N 34°58' E 139°43'  

Dump ship's entire track history